createdAt,value
2022-10-05T00:02:35.493Z,8.64
2022-10-05T00:05:41.845Z,8.65
2022-10-05T00:08:48.619Z,8.68
2022-10-05T00:11:57.345Z,8.72
2022-10-05T00:15:04.363Z,8.73
2022-10-05T00:18:17.302Z,8.75
2022-10-05T00:21:25.844Z,8.72
2022-10-05T00:24:32.853Z,8.70
2022-10-05T00:27:42.170Z,8.68
2022-10-05T00:30:48.347Z,8.66
2022-10-05T00:33:55.650Z,8.67
2022-10-05T00:37:03.495Z,8.66
2022-10-05T00:40:23.454Z,8.68
2022-10-05T00:43:57.055Z,8.65
2022-10-05T00:47:16.796Z,8.66
2022-10-05T00:50:51.881Z,8.70
2022-10-05T00:54:17.375Z,8.72
2022-10-05T00:57:36.979Z,8.81
2022-10-05T01:00:53.273Z,8.82
2022-10-05T01:04:08.527Z,8.81
2022-10-05T01:07:24.354Z,8.82
2022-10-05T01:10:35.663Z,8.81
2022-10-05T01:13:52.556Z,8.80
2022-10-05T01:17:06.141Z,8.82
2022-10-05T01:20:26.962Z,8.85
2022-10-05T01:24:06.378Z,8.89
2022-10-05T01:27:53.984Z,8.90
2022-10-05T01:31:06.852Z,8.91
2022-10-05T01:34:22.473Z,8.95
2022-10-05T01:37:35.628Z,8.95
2022-10-05T01:40:50.905Z,8.97
2022-10-05T01:44:03.874Z,8.94
2022-10-05T01:47:14.539Z,8.97
2022-10-05T01:50:31.807Z,8.96
2022-10-05T01:53:49.689Z,8.97
2022-10-05T01:57:06.079Z,8.98
2022-10-05T02:00:18.119Z,9.01
2022-10-05T02:03:30.155Z,9.02
2022-10-05T02:06:41.876Z,9.05
2022-10-05T02:09:56.481Z,9.06
2022-10-05T02:13:06.413Z,9.10
2022-10-05T02:16:20.144Z,9.13
2022-10-05T02:19:30.722Z,9.13
2022-10-05T02:22:41.109Z,9.13
2022-10-05T02:25:50.603Z,9.15
2022-10-05T02:29:01.248Z,9.17
2022-10-05T02:32:20.968Z,9.17
2022-10-05T02:35:27.670Z,9.16
2022-10-05T02:38:43.980Z,9.17
2022-10-05T02:41:56.683Z,9.16
2022-10-05T02:45:14.334Z,9.15
2022-10-05T02:48:37.264Z,9.11
2022-10-05T02:51:52.274Z,9.05
2022-10-05T02:55:10.524Z,8.99
2022-10-05T02:58:19.808Z,8.92
2022-10-05T03:01:30.981Z,8.86
2022-10-05T03:04:45.262Z,8.79
2022-10-05T03:08:01.156Z,8.76
2022-10-05T03:11:16.494Z,8.71
2022-10-05T03:14:29.999Z,8.67
2022-10-05T03:17:43.852Z,8.66
2022-10-05T03:21:03.135Z,8.67
2022-10-05T03:24:29.365Z,8.63
2022-10-05T03:27:44.651Z,8.56
2022-10-05T03:31:00.210Z,8.57
2022-10-05T03:34:17.285Z,8.55
2022-10-05T03:37:31.395Z,8.53
2022-10-05T03:40:41.830Z,8.52
2022-10-05T03:44:18.041Z,8.53
2022-10-05T03:47:33.060Z,8.51
2022-10-05T03:50:48.657Z,8.53
2022-10-05T03:54:03.955Z,8.55
2022-10-05T03:57:15.488Z,8.54
2022-10-05T04:00:25.874Z,8.56
2022-10-05T04:03:42.291Z,8.58
2022-10-05T04:06:52.000Z,8.60
2022-10-05T04:10:03.978Z,8.59
2022-10-05T04:13:16.520Z,8.57
2022-10-05T04:16:28.729Z,8.57
2022-10-05T04:19:40.438Z,8.57
2022-10-05T04:22:54.848Z,8.60
2022-10-05T04:26:09.683Z,8.61
2022-10-05T04:29:22.499Z,8.59
2022-10-05T04:32:34.255Z,8.61
2022-10-05T04:35:51.081Z,8.54
2022-10-05T04:39:11.640Z,8.52
2022-10-05T04:42:31.898Z,8.48
2022-10-05T04:45:50.390Z,8.40
2022-10-05T04:49:10.887Z,8.40
2022-10-05T04:52:26.411Z,8.34
2022-10-05T04:55:39.151Z,8.39
2022-10-05T04:59:10.268Z,8.39
2022-10-05T05:02:25.547Z,8.36
2022-10-05T05:06:05.132Z,8.35
2022-10-05T05:09:26.932Z,8.34
2022-10-05T05:12:48.914Z,8.38
2022-10-05T05:16:04.300Z,8.41
2022-10-05T05:19:26.626Z,8.45
2022-10-05T05:22:40.974Z,8.44
2022-10-05T05:25:54.093Z,8.50
2022-10-05T05:29:10.796Z,8.56
2022-10-05T05:32:31.219Z,8.61
2022-10-05T05:35:56.687Z,8.61
2022-10-05T05:39:22.344Z,8.62
2022-10-05T05:42:37.728Z,8.60
2022-10-05T05:45:47.604Z,8.57
2022-10-05T05:49:00.593Z,8.53
2022-10-05T05:52:17.595Z,8.50
2022-10-05T05:55:30.332Z,8.57
2022-10-05T05:58:46.916Z,8.65
2022-10-05T06:01:59.306Z,8.68
2022-10-05T06:05:26.467Z,8.74
2022-10-05T06:08:39.574Z,8.75
2022-10-05T06:11:57.723Z,8.82
2022-10-05T06:15:17.036Z,8.89
2022-10-05T06:18:26.038Z,8.98
2022-10-05T06:21:47.510Z,9.08
2022-10-05T06:25:04.126Z,9.25
2022-10-05T06:28:13.615Z,9.42
2022-10-05T06:31:54.204Z,9.61
2022-10-05T06:35:19.991Z,9.86
2022-10-05T06:38:47.819Z,10.06
2022-10-05T06:42:11.749Z,10.22
2022-10-05T06:46:06.759Z,10.39
2022-10-05T06:49:23.672Z,10.58
2022-10-05T06:53:10.557Z,10.78
2022-10-05T06:56:24.451Z,10.89
2022-10-05T06:59:37.710Z,10.92
2022-10-05T07:02:51.489Z,11.05
2022-10-05T07:06:10.008Z,11.21
2022-10-05T07:09:31.604Z,11.41
2022-10-05T07:12:55.014Z,11.59
2022-10-05T07:16:08.047Z,11.78
2022-10-05T07:19:27.831Z,11.97
2022-10-05T07:22:55.030Z,12.04
2022-10-05T07:26:07.857Z,12.15
2022-10-05T07:29:25.741Z,12.26
2022-10-05T07:32:38.228Z,12.35
2022-10-05T07:36:08.863Z,12.37
2022-10-05T07:39:21.586Z,12.43
2022-10-05T07:42:50.671Z,12.47
2022-10-05T07:46:14.702Z,12.49
2022-10-05T07:49:29.110Z,12.55
2022-10-05T07:52:44.617Z,12.63
2022-10-05T07:55:56.610Z,12.67
2022-10-05T07:59:08.918Z,12.77
2022-10-05T08:02:27.093Z,12.85
2022-10-05T08:05:36.142Z,12.97
2022-10-05T08:08:51.893Z,13.04
2022-10-05T08:12:07.546Z,13.12
2022-10-05T08:15:20.698Z,13.21
2022-10-05T08:18:45.491Z,13.34
2022-10-05T08:21:57.238Z,13.46
2022-10-05T08:25:08.455Z,13.54
2022-10-05T08:28:21.512Z,13.69
2022-10-05T08:31:32.213Z,13.84
2022-10-05T08:34:54.295Z,14.02
2022-10-05T08:38:03.368Z,14.22
2022-10-05T08:41:49.379Z,14.37
2022-10-05T08:45:32.165Z,14.53
2022-10-05T08:49:14.214Z,14.65
2022-10-05T08:52:32.164Z,14.77
2022-10-05T08:55:48.027Z,14.81
2022-10-05T08:59:27.851Z,14.90
2022-10-05T09:02:46.996Z,15.03
2022-10-05T09:06:33.717Z,15.27
2022-10-05T09:10:10.101Z,15.21
2022-10-05T09:13:28.772Z,15.26
2022-10-05T09:17:00.399Z,15.28
2022-10-05T09:20:25.774Z,15.32
2022-10-05T09:23:43.080Z,15.34
2022-10-05T09:27:06.440Z,15.44
2022-10-05T09:30:28.335Z,15.48
2022-10-05T09:34:23.251Z,15.41
2022-10-05T09:37:47.478Z,15.34
2022-10-05T09:41:26.102Z,15.39
2022-10-05T09:45:12.156Z,15.48
2022-10-05T09:48:59.614Z,15.48
2022-10-05T09:52:19.931Z,15.44
2022-10-05T09:56:00.649Z,15.52
2022-10-05T09:59:40.918Z,15.64
2022-10-05T10:03:25.277Z,15.66
2022-10-05T10:07:04.125Z,15.80
2022-10-05T10:10:31.747Z,15.98
2022-10-05T10:14:03.662Z,16.18
2022-10-05T10:17:19.711Z,16.19
2022-10-05T10:20:41.718Z,16.22
2022-10-05T10:24:06.976Z,16.31
2022-10-05T10:27:23.571Z,16.50
2022-10-05T10:31:00.780Z,16.61
2022-10-05T10:34:26.146Z,16.70
2022-10-05T10:37:58.702Z,16.79
2022-10-05T10:41:42.928Z,16.86
2022-10-05T10:45:03.348Z,16.96
2022-10-05T10:48:14.638Z,16.99
2022-10-05T10:51:39.684Z,17.05
2022-10-05T10:55:18.921Z,17.19
2022-10-05T10:58:56.795Z,17.14
2022-10-05T11:02:28.908Z,17.27
2022-10-05T11:05:50.615Z,17.32
2022-10-05T11:09:19.192Z,17.36
2022-10-05T11:13:08.503Z,17.40
2022-10-05T11:16:34.183Z,17.43
2022-10-05T11:20:05.604Z,17.48
2022-10-05T11:23:37.971Z,17.48
2022-10-05T11:27:00.714Z,17.48
2022-10-05T11:30:50.383Z,17.56
2022-10-05T11:34:45.962Z,17.60
2022-10-05T11:38:21.054Z,17.54
2022-10-05T11:41:58.633Z,17.66
2022-10-05T11:45:22.179Z,17.73
2022-10-05T11:48:54.121Z,17.76
2022-10-05T11:52:09.431Z,17.82
2022-10-05T11:55:27.447Z,17.80
2022-10-05T11:58:37.312Z,17.83
2022-10-05T12:01:53.621Z,17.86
2022-10-05T12:05:07.165Z,17.93
2022-10-05T12:08:26.405Z,17.89
2022-10-05T12:11:54.329Z,17.92
2022-10-05T12:15:11.634Z,18.04
2022-10-05T12:18:25.141Z,18.13
2022-10-05T12:21:37.122Z,18.19
2022-10-05T12:25:03.659Z,18.20
2022-10-05T12:28:18.411Z,18.17
2022-10-05T12:31:37.176Z,18.28
2022-10-05T12:34:58.992Z,18.37
2022-10-05T12:38:14.690Z,18.56
2022-10-05T12:41:28.821Z,18.69
2022-10-05T12:44:54.449Z,18.76
2022-10-05T12:48:22.497Z,18.80
2022-10-05T12:51:38.014Z,18.86
2022-10-05T12:54:51.335Z,18.85
2022-10-05T12:58:09.549Z,18.74
2022-10-05T13:01:30.193Z,18.78
2022-10-05T13:04:48.012Z,18.74
2022-10-05T13:08:15.071Z,18.65
2022-10-05T13:11:26.895Z,18.57
2022-10-05T13:14:52.675Z,18.54
2022-10-05T13:18:13.388Z,18.46
2022-10-05T13:21:24.963Z,18.37
2022-10-05T13:24:46.394Z,18.41
2022-10-05T13:28:03.112Z,18.42
2022-10-05T13:31:16.176Z,18.43
2022-10-05T13:34:35.399Z,18.43
2022-10-05T13:37:49.880Z,18.40
2022-10-05T13:41:09.772Z,18.39
2022-10-05T13:44:25.037Z,18.34
2022-10-05T13:47:37.985Z,18.27
2022-10-05T13:50:54.498Z,18.25
2022-10-05T13:54:07.817Z,18.18
2022-10-05T13:57:21.756Z,18.17
2022-10-05T14:00:29.778Z,18.11
2022-10-05T14:03:38.018Z,18.11
2022-10-05T14:06:48.713Z,18.19
2022-10-05T14:09:54.549Z,18.22
2022-10-05T14:13:01.262Z,18.22
2022-10-05T14:16:25.553Z,18.26
2022-10-05T14:19:37.035Z,18.22
2022-10-05T14:22:57.063Z,18.26
2022-10-05T14:26:04.660Z,18.19
2022-10-05T14:29:21.448Z,18.18
2022-10-05T14:32:29.920Z,18.17
2022-10-05T14:35:49.210Z,18.18
2022-10-05T14:39:03.744Z,18.16
2022-10-05T14:42:21.644Z,18.14
2022-10-05T14:45:30.258Z,18.14
2022-10-05T14:48:44.250Z,18.14
2022-10-05T14:51:51.673Z,18.09
2022-10-05T14:55:06.112Z,18.03
2022-10-05T14:58:27.092Z,17.97
2022-10-05T15:01:35.304Z,17.87
2022-10-05T15:04:47.543Z,17.78
2022-10-05T15:07:57.403Z,17.71
2022-10-05T15:11:11.780Z,17.60
2022-10-05T15:14:22.321Z,17.50
2022-10-05T15:17:34.198Z,17.43
2022-10-05T15:20:47.939Z,17.33
2022-10-05T15:23:57.716Z,17.21
2022-10-05T15:27:08.398Z,17.09
2022-10-05T15:30:18.290Z,17.00
2022-10-05T15:33:33.725Z,16.95
2022-10-05T15:36:46.194Z,16.88
2022-10-05T15:39:57.807Z,16.80
2022-10-05T15:43:13.284Z,16.75
2022-10-05T15:46:23.705Z,16.68
2022-10-05T15:49:40.385Z,16.63
2022-10-05T15:52:52.158Z,16.54
2022-10-05T15:56:03.609Z,16.43
2022-10-05T15:59:23.279Z,16.35
2022-10-05T16:02:36.191Z,16.27
2022-10-05T16:06:06.881Z,16.22
2022-10-05T16:09:28.847Z,16.14
2022-10-05T16:12:49.473Z,16.07
2022-10-05T16:16:05.669Z,16.00
2022-10-05T16:19:20.846Z,15.90
2022-10-05T16:22:34.888Z,15.86
2022-10-05T16:25:50.631Z,15.84
2022-10-05T16:29:06.483Z,15.81
2022-10-05T16:32:20.607Z,15.80
2022-10-05T16:35:36.545Z,15.75
2022-10-05T16:38:50.962Z,15.68
2022-10-05T16:42:06.974Z,15.64
2022-10-05T16:45:27.044Z,15.59
2022-10-05T16:48:42.228Z,15.54
2022-10-05T16:51:57.025Z,15.47
2022-10-05T16:55:08.511Z,15.40
2022-10-05T16:58:19.858Z,15.37
2022-10-05T17:01:43.830Z,15.30
2022-10-05T17:05:03.636Z,15.18
2022-10-05T17:08:36.811Z,15.11
2022-10-05T17:11:57.247Z,15.05
2022-10-05T17:15:20.983Z,15.02
2022-10-05T17:18:33.236Z,14.94
2022-10-05T17:21:47.892Z,14.90
2022-10-05T17:25:03.353Z,14.85
2022-10-05T17:28:28.499Z,14.79
2022-10-05T17:31:35.290Z,14.73
2022-10-05T17:35:02.952Z,14.71
2022-10-05T17:38:18.346Z,14.67
2022-10-05T17:41:28.397Z,14.61
2022-10-05T17:44:33.957Z,14.59
2022-10-05T17:47:59.510Z,14.62
2022-10-05T17:51:26.326Z,14.58
2022-10-05T17:55:19.206Z,14.57
2022-10-05T17:59:04.434Z,14.52
2022-10-05T18:02:23.475Z,14.49
2022-10-05T18:05:32.696Z,14.45
2022-10-05T18:08:40.481Z,14.42
2022-10-05T18:12:06.340Z,14.43
2022-10-05T18:15:49.433Z,14.42
2022-10-05T18:19:01.148Z,14.38
2022-10-05T18:22:30.919Z,14.38
2022-10-05T18:25:47.979Z,14.33
2022-10-05T18:29:14.122Z,14.29
2022-10-05T18:32:27.434Z,14.25
2022-10-05T18:35:39.697Z,14.20
2022-10-05T18:38:58.367Z,14.16
2022-10-05T18:42:16.908Z,14.10
2022-10-05T18:45:33.438Z,14.05
2022-10-05T18:48:48.822Z,13.97
2022-10-05T18:52:03.518Z,13.90
2022-10-05T18:55:20.238Z,13.85
2022-10-05T18:58:30.011Z,13.79
2022-10-05T19:02:07.210Z,13.76
2022-10-05T19:09:03.682Z,13.67
2022-10-05T19:12:18.563Z,13.63
2022-10-05T19:15:32.882Z,13.57
2022-10-05T19:19:04.477Z,13.52
2022-10-05T19:22:17.807Z,13.42
2022-10-05T19:25:39.792Z,13.38
2022-10-05T19:28:57.756Z,13.31
2022-10-05T19:32:07.429Z,13.26
2022-10-05T19:35:28.284Z,13.22
2022-10-05T19:38:44.456Z,13.17
2022-10-05T19:42:08.273Z,13.13
2022-10-05T19:45:22.691Z,13.09
2022-10-05T19:48:35.643Z,13.04
2022-10-05T19:51:54.431Z,13.02
2022-10-05T19:55:16.095Z,12.98
2022-10-05T19:58:24.632Z,12.94
2022-10-05T20:01:36.586Z,12.89
2022-10-05T20:04:44.651Z,12.87
2022-10-05T20:07:53.892Z,12.84
2022-10-05T20:11:14.370Z,12.79
2022-10-05T20:14:22.647Z,12.72
2022-10-05T20:17:45.006Z,12.68
2022-10-05T20:20:51.426Z,12.64
2022-10-05T20:24:12.626Z,12.64
2022-10-05T20:27:45.458Z,12.61
2022-10-05T20:30:51.906Z,12.53
2022-10-05T20:33:58.347Z,12.50
2022-10-05T20:37:03.912Z,12.47
2022-10-05T20:40:15.059Z,12.45
2022-10-05T20:43:20.631Z,12.41
2022-10-05T20:46:27.106Z,12.39
2022-10-05T20:49:36.778Z,12.36
2022-10-05T20:52:43.432Z,12.35
2022-10-05T20:55:51.799Z,12.35
2022-10-05T20:58:58.248Z,12.34
2022-10-05T21:02:06.884Z,12.34
2022-10-05T21:05:13.379Z,12.34
2022-10-05T21:08:19.059Z,12.31
2022-10-05T21:11:28.777Z,12.31
2022-10-05T21:14:34.613Z,12.31
2022-10-05T21:17:41.324Z,12.29
2022-10-05T21:20:50.219Z,12.28
2022-10-05T21:23:57.087Z,12.27
2022-10-05T21:27:06.834Z,12.27
2022-10-05T21:30:14.001Z,12.25
2022-10-05T21:33:19.633Z,12.25
2022-10-05T21:36:32.293Z,12.24
2022-10-05T21:39:37.937Z,12.23
2022-10-05T21:42:47.587Z,12.21
2022-10-05T21:45:53.265Z,12.18
2022-10-05T21:48:59.770Z,12.17
2022-10-05T21:52:08.299Z,12.14
2022-10-05T21:55:15.994Z,12.10
2022-10-05T21:58:26.210Z,12.05
2022-10-05T22:01:34.969Z,12.01
2022-10-05T22:04:40.763Z,12.00
2022-10-05T22:07:47.193Z,11.98
2022-10-05T22:10:54.922Z,11.98
2022-10-05T22:14:05.083Z,11.95
2022-10-05T22:17:17.575Z,11.92
2022-10-05T22:20:24.759Z,11.91
2022-10-05T22:23:30.438Z,11.90
2022-10-05T22:26:37.614Z,11.89
2022-10-05T22:29:46.513Z,11.88
2022-10-05T22:32:52.940Z,11.86
2022-10-05T22:35:59.996Z,11.85
2022-10-05T22:39:08.231Z,11.85
2022-10-05T22:42:13.796Z,11.86
2022-10-05T22:45:23.023Z,11.84
2022-10-05T22:48:28.805Z,11.84
2022-10-05T22:51:35.911Z,11.86
2022-10-05T22:54:41.549Z,11.84
2022-10-05T22:57:49.350Z,11.83
2022-10-05T23:00:58.997Z,11.82
2022-10-05T23:04:08.975Z,11.80
2022-10-05T23:07:15.329Z,11.79
2022-10-05T23:10:22.324Z,11.78
2022-10-05T23:13:28.104Z,11.77
2022-10-05T23:16:37.524Z,11.78
2022-10-05T23:19:43.084Z,11.77
2022-10-05T23:22:49.899Z,11.79
2022-10-05T23:25:55.795Z,11.78
2022-10-05T23:29:04.274Z,11.77
2022-10-05T23:32:12.850Z,11.77
2022-10-05T23:35:19.508Z,11.76
2022-10-05T23:38:25.701Z,11.76
2022-10-05T23:41:32.628Z,11.74
2022-10-05T23:44:38.218Z,11.71
2022-10-05T23:47:49.084Z,11.75
2022-10-05T23:50:55.896Z,11.73
2022-10-05T23:54:03.568Z,11.73
2022-10-05T23:57:09.580Z,11.71
